Time;durP1;ratioP1;P1;durP2;ratioP2;P2;SDS_P1;SDS_P2;PMS_P1;PMS_P2;Temp;Humidity;BMP_temperature;BMP_pressure;BME280_temperature;BME280_humidity;BME280_pressure;Samples;Min_cycle;Max_cycle;Signal;HPM_P1;HPM_P2
2022/09/24 00:01:39;;;;;;;15.23;13.83;;;16.70;78.40;;;19.64;57.02;101242.44;5038802;28;20198;-66
2022/09/24 00:04:10;;;;;;;14.47;13.07;;;16.70;78.40;;;19.65;57.10;101244.09;5059398;28;20205;-67
2022/09/24 00:06:41;;;;;;;16.97;13.23;;;16.70;78.60;;;19.65;56.86;101236.09;5060589;28;20204;-66
2022/09/24 00:09:12;;;;;;;13.60;12.37;;;16.70;78.30;;;19.66;57.20;101245.72;5060820;28;20547;-66
2022/09/24 00:11:42;;;;;;;16.70;15.00;;;16.70;78.30;;;19.66;57.16;101245.72;5059726;28;20197;-66
2022/09/24 00:14:11;;;;;;;16.27;14.57;;;16.70;78.30;;;19.66;56.79;101237.69;5044888;28;20285;-66
2022/09/24 00:16:42;;;;;;;16.07;14.57;;;16.70;78.30;;;19.66;56.53;101244.91;5055731;28;20240;-65
2022/09/24 00:19:12;;;;;;;15.53;13.93;;;16.70;78.10;;;19.66;56.84;101235.03;5058332;28;20218;-65
2022/09/24 00:21:41;;;;;;;15.77;14.27;;;16.70;78.40;;;19.67;57.01;101226.00;5057444;28;20190;-66
2022/09/24 00:26:48;;;;;;;16.07;14.37;;;16.70;78.60;;;19.68;57.03;101227.63;5055600;28;20208;-64
2022/09/24 00:27:01;;;;;;;15.50;13.67;;;16.70;78.60;;;19.68;57.33;101232.97;5055732;28;20220;-66
2022/09/24 00:29:32;;;;;;;15.00;13.60;;;16.80;78.70;;;19.68;57.40;101227.63;5057078;28;20643;-67
2022/09/24 00:32:04;;;;;;;16.87;14.70;;;16.80;79.40;;;19.68;57.13;101222.28;5056442;28;20698;-66
2022/09/24 00:34:32;;;;;;;14.30;12.90;;;16.70;78.60;;;19.71;57.41;101221.00;5057344;28;20228;-66
2022/09/24 00:37:00;;;;;;;14.70;13.30;;;16.80;78.90;;;19.73;57.32;101219.75;5058517;28;20663;-66
2022/09/24 00:39:27;;;;;;;15.80;14.23;;;16.80;78.80;;;19.73;57.14;101225.09;5057581;28;20206;-66
2022/09/24 00:41:54;;;;;;;17.80;16.00;;;16.80;78.60;;;19.69;56.92;101218.56;5057154;28;20217;-67
2022/09/24 00:44:53;;;;;;;16.10;14.27;;;16.80;78.20;;;19.61;56.89;101216.19;5057082;28;20217;-66
2022/09/24 00:47:32;;;;;;;13.83;12.47;;;16.80;78.00;;;19.59;57.01;101211.06;5038633;28;20191;-66
2022/09/24 00:50:15;;;;;;;17.50;15.70;;;16.70;77.80;;;19.53;57.01;101213.81;5039130;28;20179;-66
2022/09/24 00:52:51;;;;;;;17.30;15.60;;;16.70;78.20;;;19.50;56.78;101208.91;5041107;28;20209;-69
2022/09/24 00:55:22;;;;;;;14.73;13.43;;;16.70;78.20;;;19.46;57.22;101210.41;5039076;28;20174;-65
2022/09/24 00:57:55;;;;;;;14.87;13.27;;;16.60;78.00;;;19.45;57.34;101216.75;5038779;28;20215;-64
2022/09/24 01:00:23;;;;;;;14.87;13.37;;;16.60;78.70;;;19.44;57.56;101209.81;5038613;28;20190;-67
2022/09/24 01:03:01;;;;;;;14.47;12.97;;;16.60;78.60;;;19.45;57.29;101203.41;5049183;28;20222;-66
2022/09/24 01:05:28;;;;;;;14.27;12.90;;;16.60;78.80;;;19.47;57.77;101214.69;5060160;28;20174;-66
2022/09/24 01:07:56;;;;;;;14.37;13.07;;;16.60;78.90;;;19.46;57.27;101202.38;5063503;28;20197;-67
2022/09/24 01:10:49;;;;;;;14.70;13.30;;;16.60;79.60;;;19.43;57.36;101208.97;5060459;28;20288;-65
2022/09/24 01:14:04;;;;;;;16.83;15.23;;;16.60;79.00;;;19.34;57.40;101212.13;5061282;28;20214;-67
2022/09/24 01:16:44;;;;;;;16.63;14.80;;;16.60;78.60;;;19.30;57.56;101208.28;5040981;28;20210;-65
2022/09/24 01:19:45;;;;;;;14.13;12.73;;;16.50;78.60;;;19.23;57.33;101202.97;5042739;28;20210;-66
2022/09/24 01:22:30;;;;;;;14.63;13.33;;;16.50;78.50;;;19.24;57.60;101198.44;5034613;28;20221;-65
2022/09/24 01:25:12;;;;;;;14.73;13.40;;;16.50;78.70;;;19.20;57.42;101195.41;5039764;28;20720;-65
2022/09/24 01:28:08;;;;;;;15.13;13.60;;;16.40;78.40;;;19.16;57.63;101191.53;5054162;28;20240;-67
2022/09/24 01:30:40;;;;;;;15.07;13.77;;;16.40;78.80;;;19.14;58.01;101198.13;5053657;28;20182;-66
2022/09/24 01:33:18;;;;;;;15.97;14.53;;;16.40;78.80;;;19.03;58.26;101194.34;5053662;28;20210;-66
2022/09/24 01:35:54;;;;;;;15.57;14.07;;;16.30;79.00;;;18.93;58.11;101186.81;5051644;28;20224;-66
2022/09/24 01:38:27;;;;;;;15.27;13.77;;;16.30;78.90;;;18.88;58.43;101193.84;5053138;28;20205;-66
2022/09/24 01:40:59;;;;;;;16.40;14.13;;;16.20;79.00;;;18.84;58.31;101193.47;5053176;28;20178;-66
2022/09/24 01:43:29;;;;;;;14.17;12.87;;;16.10;79.30;;;18.85;58.82;101189.75;5053335;28;20216;-66
2022/09/24 01:46:03;;;;;;;16.30;14.80;;;16.10;79.60;;;18.84;58.79;101189.97;5053422;28;20204;-66
2022/09/24 01:48:31;;;;;;;15.67;14.20;;;16.10;79.80;;;18.81;58.62;101182.41;5054009;28;20175;-66
2022/09/24 01:51:07;;;;;;;15.67;14.20;;;16.00;79.60;;;18.77;58.79;101182.03;5051030;28;20681;-67
2022/09/24 01:53:41;;;;;;;15.27;13.77;;;16.10;80.00;;;18.72;58.78;101176.53;5053019;28;20244;-65
2022/09/24 01:56:15;;;;;;;15.80;14.20;;;16.00;80.00;;;18.71;59.04;101172.22;5053683;28;20185;-66
2022/09/24 01:58:50;;;;;;;16.17;14.70;;;16.00;80.40;;;18.69;59.06;101174.28;5053242;28;20286;-66
2022/09/24 02:01:25;;;;;;;14.27;12.97;;;16.00;80.50;;;18.69;59.47;101168.13;5052580;28;20200;-65
2022/09/24 02:03:57;;;;;;;17.23;15.63;;;15.90;81.00;;;18.68;59.51;101172.69;5051228;28;20726;-65
2022/09/24 02:06:32;;;;;;;14.87;13.43;;;16.00;81.10;;;18.67;59.22;101170.22;5052382;28;20526;-65
2022/09/24 02:08:59;;;;;;;15.50;13.97;;;15.90;80.80;;;18.70;59.63;101167.94;5032766;28;20198;-65
2022/09/24 02:11:29;;;;;;;14.97;13.37;;;15.90;81.00;;;18.72;59.37;101160.53;5032468;28;20198;-66
2022/09/24 02:14:02;;;;;;;16.57;14.93;;;15.90;80.80;;;18.69;59.20;101162.81;5032850;28;20232;-65
2022/09/24 02:16:39;;;;;;;19.00;14.47;;;15.90;80.80;;;18.62;59.32;101157.53;5032804;28;20218;-65
2022/09/24 02:19:13;;;;;;;15.00;13.60;;;15.90;80.70;;;18.60;59.55;101164.09;5032888;28;20675;-66
2022/09/24 02:21:43;;;;;;;13.90;12.63;;;15.90;80.80;;;18.62;59.53;101162.84;5030648;28;20225;-65
2022/09/24 02:24:18;;;;;;;16.33;14.93;;;15.90;81.20;;;18.62;59.56;101156.69;5039986;28;20206;-66
2022/09/24 02:26:46;;;;;;;16.67;15.07;;;15.80;81.20;;;18.58;59.61;101159.00;5031992;28;20174;-66
2022/09/24 02:29:13;;;;;;;15.90;14.30;;;15.90;81.30;;;18.57;59.58;101164.53;5032066;28;20660;-65
2022/09/24 02:31:47;;;;;;;15.00;13.67;;;15.80;81.00;;;18.53;59.60;101158.84;5031746;28;20199;-66
2022/09/24 02:34:20;;;;;;;17.13;15.43;;;15.80;81.20;;;18.51;59.79;101168.91;5031950;28;20194;-66
2022/09/24 02:36:49;;;;;;;16.73;15.00;;;15.80;81.60;;;18.48;59.81;101155.16;5031989;28;20194;-66
2022/09/24 02:39:16;;;;;;;15.93;14.33;;;15.70;81.20;;;18.44;59.98;101153.94;5033029;28;20221;-66
2022/09/24 02:41:48;;;;;;;14.73;13.40;;;15.70;81.50;;;18.39;60.13;101154.59;5031658;28;20190;-65
2022/09/24 02:44:16;;;;;;;16.40;14.80;;;15.70;81.50;;;18.39;60.37;101156.44;5032204;28;20462;-66
2022/09/24 02:46:46;;;;;;;16.97;15.37;;;15.70;82.00;;;18.38;60.26;101144.13;5032051;28;20660;-65
2022/09/24 02:49:14;;;;;;;16.77;15.03;;;15.60;81.90;;;18.37;60.20;101148.66;5031972;28;20652;-65
2022/09/24 02:51:43;;;;;;;16.90;15.33;;;15.60;82.00;;;18.37;60.20;101146.00;5031461;28;20249;-65
2022/09/24 02:54:10;;;;;;;15.37;13.90;;;15.70;82.10;;;18.38;60.22;101147.63;5051696;28;20213;-65
2022/09/24 02:56:38;;;;;;;15.70;14.30;;;15.70;82.00;;;18.36;60.28;101147.00;5049710;28;20194;-65
2022/09/24 02:59:06;;;;;;;14.77;13.30;;;15.60;82.20;;;18.43;60.36;101138.97;5051281;28;20654;-65
2022/09/24 03:01:34;;;;;;;16.90;15.50;;;15.60;82.40;;;18.48;60.27;101141.84;5051155;28;20229;-66
2022/09/24 03:04:04;;;;;;;16.30;14.87;;;15.70;82.40;;;18.48;59.99;101139.16;5051502;28;20273;-66
2022/09/24 03:06:32;;;;;;;16.80;14.17;;;15.70;82.00;;;18.44;59.93;101132.63;5051580;28;20197;-66
2022/09/24 03:09:01;;;;;;;16.60;14.90;;;15.60;82.50;;;18.41;60.13;101138.38;5051759;28;20186;-65
2022/09/24 03:11:31;;;;;;;15.43;14.03;;;15.60;81.70;;;18.39;60.22;101133.28;5050661;28;20190;-65
2022/09/24 03:13:59;;;;;;;15.37;13.97;;;15.60;81.90;;;18.32;60.24;101137.00;5050452;28;20281;-66
2022/09/24 03:16:27;;;;;;;13.30;12.10;;;15.60;81.90;;;18.29;60.62;101138.25;5051368;28;20190;-65
2022/09/24 03:18:54;;;;;;;12.97;11.80;;;15.60;82.10;;;18.30;60.44;101139.91;5051073;28;20205;-65
2022/09/24 03:21:23;;;;;;;13.40;12.20;;;15.60;82.10;;;18.34;60.22;101143.75;5051121;28;20244;-65
2022/09/24 03:23:50;;;;;;;16.13;14.57;;;15.60;82.30;;;18.27;60.30;101137.66;5051492;28;20762;-66
2022/09/24 03:26:17;;;;;;;16.37;14.77;;;15.50;81.90;;;18.18;60.36;101136.28;5054256;28;20243;-66
2022/09/24 03:28:45;;;;;;;15.30;13.40;;;15.50;81.70;;;18.06;60.68;101137.97;5046852;28;20248;-66
2022/09/24 03:31:12;;;;;;;14.07;12.77;;;15.50;81.80;;;17.98;60.81;101132.91;5035790;28;20183;-65
2022/09/24 03:33:43;;;;;;;15.00;13.60;;;15.40;81.90;;;17.91;61.13;101135.59;5036166;28;20295;-65
2022/09/24 03:36:14;;;;;;;15.60;14.10;;;15.40;82.20;;;17.84;61.30;101132.16;5035287;28;20260;-65
2022/09/24 03:38:45;;;;;;;15.07;13.67;;;15.30;82.40;;;17.79;61.41;101131.97;5036609;28;20672;-64
2022/09/24 03:41:13;;;;;;;15.70;14.20;;;15.30;82.70;;;17.76;61.73;101128.94;5035711;28;20512;-65
2022/09/24 03:43:40;;;;;;;15.73;14.23;;;15.20;82.90;;;17.68;61.84;101129.16;5035728;28;20544;-65
2022/09/24 03:46:10;;;;;;;13.33;12.20;;;15.20;83.20;;;17.71;62.05;101126.06;5054458;28;20627;-65
2022/09/24 03:48:39;;;;;;;15.17;13.73;;;15.20;83.40;;;17.75;62.08;101119.28;5054911;28;20198;-66
2022/09/24 03:51:10;;;;;;;16.50;14.90;;;15.10;83.40;;;17.75;61.79;101114.78;5054672;28;20198;-66
2022/09/24 03:53:38;;;;;;;15.03;13.63;;;15.10;83.40;;;17.75;61.93;101119.28;5054742;28;20202;-66
2022/09/24 03:56:08;;;;;;;16.00;14.47;;;15.10;83.50;;;17.69;61.90;101112.94;5055020;28;20212;-66
2022/09/24 03:58:37;;;;;;;15.43;13.97;;;15.10;83.40;;;17.67;62.16;101108.88;5054888;28;20193;-66
2022/09/24 04:01:06;;;;;;;16.03;14.47;;;15.10;83.70;;;17.64;62.09;101112.78;5052184;28;20687;-65
2022/09/24 04:03:35;;;;;;;16.00;14.40;;;15.00;83.70;;;17.64;62.23;101106.66;5054559;28;20920;-66
2022/09/24 04:06:03;;;;;;;15.97;14.37;;;15.00;83.70;;;17.65;62.18;101105.59;5054770;28;20197;-66
2022/09/24 04:08:31;;;;;;;16.40;14.80;;;15.00;83.70;;;17.66;62.40;101112.56;5054768;28;20198;-66
2022/09/24 04:10:58;;;;;;;14.90;13.60;;;15.00;84.00;;;17.67;62.09;101114.19;5054213;28;20269;-66
2022/09/24 04:13:27;;;;;;;14.40;13.10;;;15.00;84.00;;;17.63;62.00;101107.66;5054376;28;20284;-66
2022/09/24 04:15:55;;;;;;;16.20;14.70;;;15.00;84.00;;;17.63;62.50;101107.66;5053916;28;20240;-66
2022/09/24 04:18:22;;;;;;;15.70;14.20;;;14.90;84.20;;;17.63;62.26;101107.66;5052949;28;20667;-65
2022/09/24 04:20:49;;;;;;;16.23;14.70;;;15.00;84.20;;;17.63;62.46;101107.66;5053888;28;20220;-65
2022/09/24 04:23:17;;;;;;;14.97;13.57;;;15.00;84.50;;;17.63;62.47;101113.00;5054220;28;20213;-65
2022/09/24 04:25:44;;;;;;;16.23;14.70;;;15.00;84.60;;;17.66;62.43;101108.06;5054135;28;20241;-64
2022/09/24 04:28:11;;;;;;;14.77;13.30;;;15.00;84.70;;;17.70;62.30;101097.81;5054211;28;20263;-66
2022/09/24 04:30:40;;;;;;;16.73;15.20;;;15.00;84.70;;;17.72;62.02;101106.38;5053876;28;20198;-65
2022/09/24 04:33:08;;;;;;;16.83;15.23;;;15.00;84.40;;;17.71;62.21;101096.78;5052547;28;20666;-66
2022/09/24 04:35:35;;;;;;;13.57;12.30;;;15.00;84.60;;;17.71;62.29;101096.78;5055036;28;20197;-66
2022/09/24 04:38:03;;;;;;;15.47;13.90;;;15.00;84.40;;;17.74;62.28;101093.69;5053952;28;20190;-66
2022/09/24 04:40:31;;;;;;;18.37;16.67;;;15.00;84.60;;;17.75;62.34;101090.00;5053062;28;20213;-66
2022/09/24 04:42:59;;;;;;;17.60;15.90;;;15.00;84.70;;;17.70;62.28;101095.13;5053971;28;20236;-66
2022/09/24 04:45:26;;;;;;;16.87;15.17;;;15.00;84.60;;;17.68;62.45;101100.69;5053784;28;20190;-66
2022/09/24 04:47:56;;;;;;;17.03;15.43;;;15.00;84.50;;;17.65;62.38;101094.97;5053600;28;20198;-66
2022/09/24 04:50:24;;;;;;;18.17;16.57;;;15.00;84.60;;;17.64;62.44;101093.34;5051929;28;20239;-67
2022/09/24 04:52:52;;;;;;;18.90;17.17;;;15.00;84.70;;;17.57;62.51;101086.19;5069007;28;20236;-66
2022/09/24 04:55:20;;;;;;;18.40;16.50;;;14.90;84.60;;;17.53;62.72;101087.66;5053785;28;20190;-66
2022/09/24 04:57:48;;;;;;;19.70;17.80;;;14.90;84.70;;;17.50;63.02;101085.38;5053693;28;20198;-66
2022/09/24 05:00:19;;;;;;;18.93;15.93;;;14.90;84.80;;;17.52;62.95;101096.63;5053445;28;20217;-66
2022/09/24 05:02:53;;;;;;;20.60;18.27;;;14.90;84.70;;;17.51;62.87;101092.38;5051772;28;20332;-65
2022/09/24 05:05:22;;;;;;;19.83;17.87;;;14.90;85.00;;;17.55;62.73;101088.25;5051625;28;20267;-66
2022/09/24 05:07:50;;;;;;;21.07;18.73;;;14.90;85.80;;;17.59;62.77;101097.44;5053158;28;20197;-66
2022/09/24 05:10:18;;;;;;;20.47;18.47;;;14.90;84.90;;;17.59;62.81;101097.44;5053761;28;20197;-66
2022/09/24 05:12:45;;;;;;;20.73;18.53;;;14.90;85.00;;;17.62;62.69;101095.38;5052585;28;20214;-68
2022/09/24 05:15:12;;;;;;;21.73;19.67;;;15.00;85.10;;;17.61;62.71;101104.41;5052219;28;20202;-66
2022/09/24 05:17:40;;;;;;;22.70;19.80;;;14.90;84.90;;;17.57;62.55;101104.81;5053124;28;20198;-66
2022/09/24 05:20:09;;;;;;;20.63;18.63;;;14.90;84.80;;;17.55;62.78;101100.72;5053181;28;20214;-66
2022/09/24 05:22:41;;;;;;;22.93;20.60;;;15.00;84.90;;;17.51;62.85;101100.34;5050063;28;20221;-66
2022/09/24 05:25:10;;;;;;;24.07;21.67;;;14.90;84.80;;;17.54;62.62;101099.13;5053304;28;20587;-65
2022/09/24 05:27:43;;;;;;;25.10;22.40;;;14.90;84.80;;;17.48;63.00;101098.06;5053028;28;20194;-66
2022/09/24 05:30:11;;;;;;;23.30;20.80;;;14.90;85.00;;;17.46;63.06;101101.97;5053179;28;20228;-65
2022/09/24 05:32:39;;;;;;;23.60;21.17;;;14.90;84.80;;;17.46;62.68;101097.47;5052315;28;20279;-66
2022/09/24 05:35:08;;;;;;;26.17;23.33;;;14.90;85.60;;;17.48;63.00;101100.72;5052951;28;20213;-67
2022/09/24 05:37:37;;;;;;;25.73;23.07;;;14.90;85.00;;;17.49;62.97;101094.38;5047135;28;20272;-66
2022/09/24 05:42:59;;;;;;;27.10;24.20;;;14.90;84.90;;;17.47;62.73;101104.41;5052875;28;20210;-66
2022/09/24 05:45:26;;;;;;;25.37;22.70;;;14.90;84.90;;;17.48;62.83;101098.06;5052821;28;20186;-65
2022/09/24 05:47:54;;;;;;;28.00;24.50;;;14.90;84.70;;;17.49;62.65;101106.88;5053919;28;20202;-65
2022/09/24 05:50:21;;;;;;;29.00;24.23;;;14.90;84.80;;;17.46;62.88;101102.78;5053772;28;20597;-65
2022/09/24 05:52:49;;;;;;;27.83;23.97;;;14.90;84.70;;;17.50;62.56;101104.00;5052037;28;20751;-65
2022/09/24 05:55:17;;;;;;;24.37;21.87;;;14.90;84.70;;;17.55;62.56;101104.22;5050530;28;20224;-65
2022/09/24 05:57:45;;;;;;;27.23;24.43;;;14.90;84.70;;;17.56;62.60;101108.53;5052373;28;20240;-66
2022/09/24 06:00:12;;;;;;;23.23;20.50;;;14.90;84.70;;;17.62;62.38;101103.34;5052766;28;20291;-66
2022/09/24 06:02:39;;;;;;;28.27;25.37;;;14.90;84.60;;;17.56;62.23;101103.19;5052145;28;20675;-66
2022/09/24 06:05:09;;;;;;;27.23;24.43;;;14.90;84.60;;;17.50;62.52;101108.50;5052455;28;20194;-66
2022/09/24 06:07:36;;;;;;;25.50;22.73;;;14.90;84.60;;;17.51;62.66;101107.47;5052250;28;20190;-65
2022/09/24 06:10:06;;;;;;;26.97;24.17;;;14.90;84.50;;;17.53;62.42;101108.94;5050730;28;20233;-65
2022/09/24 06:12:34;;;;;;;26.03;23.23;;;14.90;84.60;;;17.51;62.61;101107.47;5044457;28;20234;-65
2022/09/24 06:15:02;;;;;;;27.03;24.13;;;15.00;84.60;;;17.57;62.69;101104.00;5064707;28;20206;-65
2022/09/24 06:17:31;;;;;;;27.43;24.50;;;15.00;84.70;;;17.66;62.34;101109.91;5032349;28;20190;-66
2022/09/24 06:19:58;;;;;;;26.47;23.80;;;15.00;84.90;;;17.73;62.18;101108.84;5032208;28;20222;-65
2022/09/24 06:22:26;;;;;;;23.53;21.03;;;15.00;84.60;;;17.84;61.97;101112.69;5031892;28;20202;-65
2022/09/24 06:24:55;;;;;;;25.67;22.90;;;15.00;84.80;;;17.96;61.77;101113.66;5031889;28;20659;-66
2022/09/24 06:27:23;;;;;;;24.97;22.43;;;15.10;84.90;;;18.05;61.65;101118.50;5033372;28;20221;-66
2022/09/24 06:29:51;;;;;;;28.87;25.17;;;15.20;84.70;;;18.08;61.25;101112.75;5032365;28;20187;-65
2022/09/24 06:32:18;;;;;;;24.13;21.73;;;15.20;84.20;;;18.11;61.29;101109.66;5031559;28;20241;-65
2022/09/24 06:34:46;;;;;;;24.20;21.77;;;15.30;84.40;;;18.19;61.20;101105.91;5031982;28;20236;-65
2022/09/24 06:37:13;;;;;;;24.77;22.17;;;15.30;84.30;;;18.23;61.24;101107.94;5032759;28;20194;-65
2022/09/24 06:39:41;;;;;;;25.50;21.57;;;15.40;84.30;;;18.27;61.09;101111.00;5032575;28;20221;-66
2022/09/24 06:42:08;;;;;;;22.00;19.47;;;15.40;84.00;;;18.31;60.87;101112.19;5032552;28;20214;-68
2022/09/24 06:44:36;;;;;;;26.43;23.70;;;15.40;84.10;;;18.32;60.71;101107.69;5032143;28;20195;-67
2022/09/24 06:47:04;;;;;;;27.67;24.33;;;15.50;83.60;;;18.26;60.50;101112.03;5032172;28;20198;-66
2022/09/24 06:49:32;;;;;;;25.77;23.13;;;15.50;83.20;;;18.20;60.67;101121.72;5031951;28;20202;-66
2022/09/24 06:52:01;;;;;;;27.43;24.53;;;15.50;83.20;;;18.17;61.06;101123.97;5031181;28;20203;-66
2022/09/24 06:54:28;;;;;;;27.73;24.93;;;15.50;83.30;;;18.18;60.99;101120.28;5031587;28;20221;-66
2022/09/24 06:56:55;;;;;;;29.17;26.07;;;15.40;83.50;;;18.19;61.02;101120.06;5032023;28;20190;-65
2022/09/24 06:59:23;;;;;;;26.97;24.23;;;15.40;83.60;;;18.19;61.23;101112.06;5039378;28;20222;-65
2022/09/24 07:01:50;;;;;;;25.23;22.37;;;15.40;83.70;;;18.23;61.19;101120.47;5053861;28;20308;-66
2022/09/24 07:04:19;;;;;;;28.53;25.77;;;15.40;83.70;;;18.23;61.02;101128.47;5055683;28;20227;-66
2022/09/24 07:09:32;;;;;;;28.87;26.07;;;15.50;83.80;;;18.14;61.48;101127.88;5055789;28;20193;-66
2022/09/24 07:12:04;;;;;;;29.83;26.60;;;15.40;83.70;;;18.10;61.58;101126.69;5055800;28;20206;-67
2022/09/24 07:14:31;;;;;;;51.27;45.60;;;15.40;83.80;;;18.10;61.59;101132.00;5054676;28;20193;-65
2022/09/24 07:16:59;;;;;;;30.50;27.13;;;15.40;83.90;;;18.18;61.63;101133.63;5036746;28;20202;-67
2022/09/24 07:19:27;;;;;;;29.20;26.27;;;15.40;84.20;;;18.24;61.44;101130.91;5035633;28;20202;-67
2022/09/24 07:21:54;;;;;;;27.97;25.07;;;15.40;84.50;;;18.23;61.37;101131.13;5036083;28;20272;-67
2022/09/24 07:24:22;;;;;;;28.57;25.77;;;15.50;84.20;;;18.23;61.58;101136.47;5053430;28;20218;-67
2022/09/24 07:26:53;;;;;;;28.43;25.70;;;15.50;84.20;;;18.18;61.55;101136.28;5055109;28;20248;-65
2022/09/24 07:29:20;;;;;;;28.43;25.07;;;15.50;84.10;;;18.20;61.64;101136.88;5046619;28;20202;-66
2022/09/24 07:31:47;;;;;;;27.57;24.60;;;15.50;84.30;;;18.18;61.69;101136.28;5035065;28;20194;-67
2022/09/24 07:34:15;;;;;;;29.87;26.77;;;15.50;84.30;;;18.19;61.66;101135.22;5034965;28;20591;-66
2022/09/24 07:36:44;;;;;;;29.60;26.47;;;15.50;84.20;;;18.24;61.73;101138.06;5035183;28;20594;-66
2022/09/24 07:39:11;;;;;;;30.77;27.47;;;15.50;85.30;;;18.30;61.75;101136.41;5035512;28;20647;-66
2022/09/24 07:41:39;;;;;;;28.80;25.30;;;15.50;84.70;;;18.37;61.78;101138.00;5034430;28;20245;-66
2022/09/24 07:44:08;;;;;;;33.10;28.57;;;15.50;84.70;;;18.41;61.17;101127.72;5034770;28;20220;-65
2022/09/24 07:46:36;;;;;;;24.47;21.97;;;15.60;84.60;;;18.45;61.61;101135.06;5035791;28;20300;-65
2022/09/24 07:49:04;;;;;;;28.57;24.93;;;15.60;84.80;;;18.58;61.40;101132.34;5034948;28;20210;-66
2022/09/24 07:51:31;;;;;;;28.40;24.33;;;15.70;85.10;;;18.68;61.23;101135.34;5035100;28;20245;-66
2022/09/24 07:54:00;;;;;;;26.63;23.93;;;15.80;84.90;;;18.79;60.94;101137.28;5050185;28;20267;-65
2022/09/24 07:56:27;;;;;;;28.53;23.83;;;15.80;84.70;;;18.90;60.69;101143.75;5054384;28;20194;-66
2022/09/24 07:58:54;;;;;;;30.87;27.27;;;15.90;84.60;;;18.96;60.40;101142.06;5054865;28;20212;-66
2022/09/24 08:01:23;;;;;;;29.10;26.13;;;16.00;84.30;;;18.99;60.15;101141.63;5052397;28;20715;-66
2022/09/24 08:03:51;;;;;;;26.57;23.90;;;16.00;84.70;;;19.02;60.24;101141.19;5054179;28;20214;-66
2022/09/24 08:06:22;;;;;;;29.07;26.03;;;16.00;84.00;;;19.05;60.28;101146.06;5054726;28;20185;-65
2022/09/24 08:08:51;;;;;;;31.50;28.30;;;16.10;83.90;;;19.05;60.15;101146.06;5053876;28;20576;-66
2022/09/24 08:11:20;;;;;;;28.67;24.40;;;16.10;83.70;;;19.04;60.25;101144.47;5053361;28;20632;-65
2022/09/24 08:13:47;;;;;;;31.07;27.50;;;16.10;83.50;;;19.00;60.39;101153.91;5054319;28;20209;-66
2022/09/24 08:16:15;;;;;;;30.03;26.93;;;16.10;83.40;;;18.97;60.42;101149.84;5054410;28;20194;-66
2022/09/24 08:18:43;;;;;;;29.70;26.63;;;16.10;83.60;;;18.90;60.72;101149.91;5036215;28;20205;-64
2022/09/24 08:21:12;;;;;;;31.10;28.00;;;16.10;83.60;;;18.89;60.98;101156.28;5033653;28;20218;-65
2022/09/24 08:23:40;;;;;;;26.37;23.67;;;16.10;83.90;;;18.89;60.79;101158.97;5034430;28;20234;-66
2022/09/24 08:26:08;;;;;;;28.23;25.33;;;16.10;84.00;;;18.92;60.96;101147.03;5034815;28;20191;-66
2022/09/24 08:28:40;;;;;;;32.97;29.67;;;16.10;84.30;;;18.95;60.93;101151.91;5034310;28;20191;-65
2022/09/24 08:31:11;;;;;;;33.33;29.63;;;16.10;84.40;;;18.92;60.85;101149.69;5033953;28;20167;-65
2022/09/24 08:33:39;;;;;;;28.23;25.10;;;16.10;84.40;;;18.96;61.02;101152.72;5042229;28;20210;-66
2022/09/24 08:36:08;;;;;;;29.50;24.63;;;16.20;84.50;;;19.02;61.48;101157.22;5053750;28;20194;-66
2022/09/24 08:38:36;;;;;;;28.60;25.57;;;16.20;84.60;;;19.08;61.02;101151.81;5053865;28;20224;-66
2022/09/24 08:41:25;;;;;;;31.87;28.60;;;16.20;84.50;;;19.13;60.68;101153.81;5053449;28;20217;-65
2022/09/24 08:44:02;;;;;;;27.60;24.07;;;16.30;84.60;;;19.14;60.47;101156.25;5053125;28;20206;-65
2022/09/24 08:49:34;;;;;;;30.03;26.83;;;16.30;84.30;;;19.11;60.70;101155.88;5051072;28;20190;-66
2022/09/24 08:52:28;;;;;;;34.70;31.00;;;16.30;84.10;;;19.14;60.78;101150.09;5032919;28;20630;-65
2022/09/24 08:55:01;;;;;;;36.03;31.70;;;16.30;84.30;;;19.20;60.99;101154.56;5033529;28;20195;-66
2022/09/24 08:57:39;;;;;;;31.97;28.67;;;16.30;84.30;;;19.25;60.85;101160.06;5033531;28;20206;-65
2022/09/24 09:00:13;;;;;;;30.87;27.63;;;16.40;84.60;;;19.27;60.66;101166.00;5031995;28;20190;-66
2022/09/24 09:02:53;;;;;;;27.63;24.67;;;16.40;84.30;;;19.33;60.45;101154.41;5033072;28;20217;-65
2022/09/24 09:05:39;;;;;;;29.90;24.70;;;16.40;84.40;;;19.36;60.33;101154.00;5033422;28;20221;-65
2022/09/24 09:08:22;;;;;;;28.07;25.07;;;16.50;84.30;;;19.39;60.28;101158.91;5052848;28;20200;-64
2022/09/24 09:11:14;;;;;;;27.60;24.83;;;16.50;84.30;;;19.46;60.36;101159.66;5052961;28;20265;-65
2022/09/24 09:13:49;;;;;;;28.03;25.00;;;16.60;84.70;;;19.53;60.58;101161.22;5053348;28;20225;-66
2022/09/24 09:16:35;;;;;;;34.33;30.87;;;16.60;84.60;;;19.52;60.58;101164.91;5053098;28;20660;-66
2022/09/24 09:19:08;;;;;;;32.07;26.83;;;16.60;84.40;;;19.61;60.23;101162.78;5053124;28;20201;-66
2022/09/24 09:21:43;;;;;;;33.47;29.87;;;16.60;84.40;;;19.61;60.18;101160.13;5052696;28;20260;-66
2022/09/24 09:24:19;;;;;;;29.57;26.27;;;16.70;84.20;;;19.59;60.07;101156.81;5033613;28;20691;-65
2022/09/24 09:26:53;;;;;;;30.33;27.10;;;16.70;84.10;;;19.66;60.21;101156.78;5031942;28;20189;-66
2022/09/24 09:29:23;;;;;;;26.83;24.13;;;16.70;84.30;;;19.75;60.10;101160.75;5033512;28;20602;-66
2022/09/24 09:32:08;;;;;;;31.40;28.03;;;16.70;84.40;;;19.77;59.91;101156.84;5032558;28;20256;-65
2022/09/24 09:34:55;;;;;;;35.00;31.23;;;16.80;84.40;;;19.75;60.42;101158.91;5052384;28;20182;-66
2022/09/24 09:37:33;;;;;;;30.27;27.07;;;16.90;84.40;;;19.73;60.39;101155.63;5052494;28;20182;-67
2022/09/24 09:40:23;;;;;;;32.37;28.87;;;16.90;84.20;;;19.76;60.30;101159.72;5040008;28;20553;-66
2022/09/24 09:43:02;;;;;;;28.63;25.73;;;16.90;84.30;;;19.73;60.48;101160.19;5032243;28;20214;-65
2022/09/24 09:45:38;;;;;;;32.57;29.07;;;16.90;84.00;;;19.73;60.06;101155.63;5032679;28;20185;-66
2022/09/24 09:48:12;;;;;;;28.80;25.70;;;16.90;84.00;;;19.73;60.13;101155.63;5038674;28;20193;-66
2022/09/24 09:50:46;;;;;;;29.83;26.70;;;16.90;84.10;;;19.69;60.38;101154.44;5032532;28;20170;-65
2022/09/24 09:53:23;;;;;;;28.60;25.50;;;16.90;84.20;;;19.68;60.48;101152.00;5047448;28;20218;-66
2022/09/24 09:55:54;;;;;;;30.13;26.90;;;16.90;84.20;;;19.69;60.76;101154.44;5042318;28;20293;-66
2022/09/24 09:58:25;;;;;;;32.23;28.77;;;16.90;84.40;;;19.68;60.64;101152.84;5032105;28;20195;-66
2022/09/24 10:01:04;;;;;;;33.43;29.93;;;16.90;84.40;;;19.65;60.63;101149.78;5031273;28;20560;-66
2022/09/24 10:03:46;;;;;;;34.93;31.33;;;16.90;84.40;;;19.64;60.79;101151.63;5032532;28;20222;-67
2022/09/24 10:06:23;;;;;;;30.93;27.67;;;16.90;84.60;;;19.63;60.95;101150.03;5046479;28;20193;-67
2022/09/24 10:08:50;;;;;;;32.67;28.83;;;16.90;84.70;;;19.65;61.02;101152.44;5050649;28;20221;-66
2022/09/24 10:11:18;;;;;;;32.20;28.83;;;16.90;84.60;;;19.64;60.95;101146.28;5057042;28;20190;-67
2022/09/24 10:13:46;;;;;;;31.83;28.40;;;16.90;84.70;;;19.62;61.17;101156.38;5031257;28;20648;-65
2022/09/24 10:16:15;;;;;;;29.57;26.47;;;16.90;84.60;;;19.65;61.30;101150.59;5030293;28;20197;-66
2022/09/24 10:18:48;;;;;;;28.83;24.57;;;16.90;84.70;;;19.69;60.77;101161.63;5031131;28;20199;-65
2022/09/24 10:21:30;;;;;;;30.20;27.20;;;16.90;84.70;;;19.61;60.63;101160.13;5031543;28;20202;-67
2022/09/24 10:24:01;;;;;;;29.13;25.13;;;16.90;84.50;;;19.53;61.37;101155.06;5030539;28;20281;-66
2022/09/24 10:26:39;;;;;;;29.10;26.30;;;16.90;84.40;;;19.49;61.44;101154.66;5032263;28;20181;-66